Time;durP1;ratioP1;P1;durP2;ratioP2;P2;SDS_P1;SDS_P2;PMS_P1;PMS_P2;Temp;Humidity;BMP_temperature;BMP_pressure;BME280_temperature;BME280_humidity;BME280_pressure;Samples;Min_cycle;Max_cycle;Signal;HPM_P1;HPM_P2
2024/01/23 00:01:02;;;;;;;7.32;1.30;;;;;;;6.80;93.98;101230.78;7395013;19;19919;-77
2024/01/23 00:03:33;;;;;;;13.63;2.08;;;;;;;6.78;93.93;101211.34;7394010;19;19930;-77
2024/01/23 00:06:02;;;;;;;7.22;1.50;;;;;;;6.70;94.17;101219.25;7395055;19;20336;-77
2024/01/23 00:08:34;;;;;;;11.20;1.35;;;;;;;6.67;94.30;101224.91;7395027;19;20255;-77
2024/01/23 00:11:03;;;;;;;16.15;2.13;;;;;;;6.59;94.27;101236.31;7394984;19;19925;-77
2024/01/23 00:13:33;;;;;;;12.02;1.63;;;;;;;6.54;94.34;101229.72;7394197;19;19915;-77
2024/01/23 00:16:02;;;;;;;8.50;1.80;;;;;;;6.51;94.74;101235.34;7384081;19;19914;-77
2024/01/23 00:18:32;;;;;;;11.13;1.70;;;;;;;6.49;94.66;101248.00;7394462;19;19922;-76
2024/01/23 00:21:01;;;;;;;9.40;1.25;;;;;;;6.45;94.45;101246.59;7401502;19;19926;-76
2024/01/23 00:23:31;;;;;;;8.65;1.50;;;;;;;6.45;94.57;101258.16;7399691;19;20415;-76
2024/01/23 00:26:02;;;;;;;9.68;1.45;;;;;;;6.38;94.49;101279.28;7401892;19;19918;-76
2024/01/23 00:28:32;;;;;;;12.50;2.20;;;;;;;6.39;94.26;101272.09;7401750;19;20256;-77
2024/01/23 00:31:01;;;;;;;9.48;1.85;;;;;;;6.36;94.14;101318.72;7400184;19;19922;-77
2024/01/23 00:33:31;;;;;;;10.05;1.30;;;;;;;6.38;93.66;101286.47;7391775;19;20295;-77
2024/01/23 00:36:00;;;;;;;11.48;1.70;;;;;;;6.41;93.09;101326.34;7402426;19;20264;-77
2024/01/23 00:38:29;;;;;;;8.80;1.88;;;;;;;6.43;92.82;101286.06;7399921;19;19925;-77
2024/01/23 00:40:59;;;;;;;8.93;2.50;;;;;;;6.41;92.84;101314.78;7400284;19;19915;-77
2024/01/23 00:43:31;;;;;;;12.68;1.73;;;;;;;6.37;92.75;101304.38;7389143;19;19933;-77
2024/01/23 00:46:01;;;;;;;13.00;1.80;;;;;;;6.36;92.54;101323.22;7401804;19;19915;-76
2024/01/23 00:48:30;;;;;;;16.27;1.80;;;;;;;6.34;92.86;101303.81;7399037;19;19915;-77
2024/01/23 00:51:00;;;;;;;10.23;2.08;;;;;;;6.30;92.72;101319.25;7402080;19;19938;-77
2024/01/23 00:53:29;;;;;;;8.18;1.05;;;;;;;6.28;92.72;101312.38;7399612;19;20254;-76
2024/01/23 00:55:59;;;;;;;12.20;1.85;;;;;;;6.28;92.83;101317.72;7398964;19;20348;-76
2024/01/23 00:58:31;;;;;;;6.15;1.60;;;;;;;6.29;92.39;101322.94;7398478;19;19919;-77
2024/01/23 01:01:00;;;;;;;;;;;;;;;6.26;92.48;101333.06;7395152;19;19918;-77
2024/01/23 01:03:29;;;;;;;7.22;1.98;;;;;;;6.26;92.53;101317.84;7399176;19;20458;-77
2024/01/23 01:05:59;;;;;;;10.65;2.00;;;;;;;6.27;92.83;101330.25;7399826;19;20363;-77
2024/01/23 01:08:28;;;;;;;9.13;1.50;;;;;;;6.27;92.25;101316.88;7400692;19;19923;-77
2024/01/23 01:10:59;;;;;;;6.93;1.33;;;;;;;6.29;92.22;101322.94;7398147;19;19925;-77
2024/01/23 01:13:31;;;;;;;8.18;1.52;;;;;;;6.31;91.91;101325.47;7400365;19;20268;-77
2024/01/23 01:16:01;;;;;;;;;;;;;;;6.27;91.60;101324.91;7402363;19;20287;-76
2024/01/23 01:18:30;;;;;;;9.93;2.55;;;;;;;6.29;91.86;101322.94;7399343;19;20001;-77
2024/01/23 01:21:00;;;;;;;8.65;1.23;;;;;;;6.30;91.92;101318.41;7400681;19;20255;-77
2024/01/23 01:23:29;;;;;;;7.32;1.63;;;;;;;6.32;91.92;101325.34;7400043;19;19958;-77
2024/01/23 01:25:59;;;;;;;9.32;1.40;;;;;;;6.32;91.63;101340.53;7400428;19;19922;-77
2024/01/23 01:28:31;;;;;;;8.80;2.45;;;;;;;6.30;91.71;101319.25;7399397;19;19918;-77
2024/01/23 01:31:00;;;;;;;7.10;1.90;;;;;;;6.28;91.94;101355.19;7397781;19;19927;-77
2024/01/23 01:33:30;;;;;;;8.40;1.88;;;;;;;6.25;91.76;101348.28;7398213;19;20538;-77
2024/01/23 01:35:59;;;;;;;14.38;1.70;;;;;;;6.22;92.07;101327.13;7400136;19;19929;-77
2024/01/23 01:38:28;;;;;;;6.68;1.52;;;;;;;6.22;92.11;101359.25;7398372;19;19915;-77
2024/01/23 01:40:58;;;;;;;15.88;1.92;;;;;;;6.20;92.32;101350.53;7400305;19;19914;-77
2024/01/23 01:43:32;;;;;;;9.15;1.80;;;;;;;6.17;92.03;101369.50;7398619;19;19921;-77
2024/01/23 01:46:14;;;;;;;13.32;2.65;;;;;;;6.16;91.82;101365.16;7395893;19;20251;-78
2024/01/23 01:48:45;;;;;;;13.05;2.10;;;;;;;6.16;92.06;101373.19;7400389;19;19910;-77
2024/01/23 01:51:15;;;;;;;8.50;2.17;;;;;;;6.14;92.40;101356.41;7398800;19;19922;-77
2024/01/23 01:53:46;;;;;;;13.35;1.83;;;;;;;6.11;92.72;101366.53;7397907;19;19958;-77
2024/01/23 01:56:15;;;;;;;8.70;1.77;;;;;;;6.10;93.00;101376.38;7399523;19;19918;-77
2024/01/23 01:58:48;;;;;;;11.10;2.08;;;;;;;6.08;92.88;101389.06;7398213;19;19930;-77
2024/01/23 02:01:18;;;;;;;12.73;2.20;;;;;;;6.07;93.27;101378.50;7398462;19;20339;-76
2024/01/23 02:03:47;;;;;;;13.23;2.20;;;;;;;6.03;93.56;101377.06;7398653;19;20284;-77
2024/01/23 02:06:17;;;;;;;8.32;2.05;;;;;;;5.99;93.96;101389.88;7398423;19;19946;-77
2024/01/23 02:08:47;;;;;;;6.97;2.08;;;;;;;5.96;94.06;101406.16;7399211;19;19914;-76
2024/01/23 02:11:17;;;;;;;10.88;1.70;;;;;;;5.97;94.21;101383.78;7399730;19;20366;-77
2024/01/23 02:13:49;;;;;;;8.80;1.70;;;;;;;5.92;94.25;101384.19;7398529;19;20681;-77
2024/01/23 02:16:19;;;;;;;16.52;2.88;;;;;;;5.92;94.51;101415.44;7399868;19;20363;-77
2024/01/23 02:18:48;;;;;;;8.25;1.75;;;;;;;5.91;94.59;101419.94;7394720;19;19923;-77
2024/01/23 02:21:18;;;;;;;10.38;1.75;;;;;;;5.92;94.80;101434.16;7399157;19;19925;-77
2024/01/23 02:23:50;;;;;;;11.55;2.13;;;;;;;5.90;94.82;101406.72;7397181;19;20340;-77
2024/01/23 02:26:19;;;;;;;13.95;2.50;;;;;;;5.90;94.78;101412.06;7399140;19;19922;-77
2024/01/23 02:28:49;;;;;;;6.22;1.70;;;;;;;5.91;94.63;101421.78;7396979;19;19922;-77
2024/01/23 02:31:18;;;;;;;10.57;1.77;;;;;;;5.90;94.62;101410.25;7399345;19;19927;-77
2024/01/23 02:33:47;;;;;;;9.30;1.58;;;;;;;5.90;94.63;101434.31;7388433;19;19937;-77
2024/01/23 02:36:17;;;;;;;12.55;2.00;;;;;;;5.89;94.88;101432.59;7394378;19;19927;-77
2024/01/23 02:38:46;;;;;;;13.80;2.65;;;;;;;5.88;94.89;101441.59;7397433;19;20561;-77
2024/01/23 02:41:18;;;;;;;9.23;2.45;;;;;;;5.86;94.85;101442.69;7394768;19;19930;-78
2024/01/23 02:43:48;;;;;;;15.95;2.22;;;;;;;5.85;95.13;101435.66;7397373;19;19922;-78
2024/01/23 02:46:17;;;;;;;15.88;2.22;;;;;;;5.83;95.05;101449.13;7398035;19;20252;-77
2024/01/23 02:48:49;;;;;;;15.70;2.45;;;;;;;5.86;94.90;101434.66;7397682;19;19927;-78
2024/01/23 02:51:20;;;;;;;12.13;2.22;;;;;;;5.87;94.43;101466.63;7396251;19;20551;-78
2024/01/23 02:53:49;;;;;;;8.20;1.67;;;;;;;5.88;94.50;101454.97;7389202;19;20474;-78
2024/01/23 02:56:20;;;;;;;9.75;2.08;;;;;;;5.88;94.60;101446.09;7392852;19;19959;-77
2024/01/23 02:58:49;;;;;;;14.52;1.92;;;;;;;5.85;94.68;101451.69;7397802;19;19939;-77
2024/01/23 03:01:17;;;;;;;9.27;1.92;;;;;;;5.85;94.56;101457.88;7395233;19;20581;-78
2024/01/23 03:03:46;;;;;;;17.77;3.08;;;;;;;5.89;94.77;101450.47;7398037;19;19994;-77
2024/01/23 03:06:15;;;;;;;14.50;2.03;;;;;;;5.89;94.57;101466.50;7397183;19;19923;-78
2024/01/23 03:08:43;;;;;;;13.05;2.25;;;;;;;5.92;94.37;101471.59;7398558;19;20618;-78
2024/01/23 03:11:12;;;;;;;10.65;1.58;;;;;;;5.97;94.33;101463.16;7390324;19;19982;-77
2024/01/23 03:13:43;;;;;;;12.52;2.30;;;;;;;5.99;94.28;101488.81;7395336;19;20263;-78
2024/01/23 03:16:12;;;;;;;12.45;3.58;;;;;;;6.00;93.98;101460.25;7395764;19;19952;-77
2024/01/23 03:18:41;;;;;;;10.32;2.58;;;;;;;6.02;94.01;101467.16;7397249;19;19922;-78
2024/01/23 03:21:09;;;;;;;10.80;2.20;;;;;;;6.04;93.99;101483.91;7397545;19;19919;-77
2024/01/23 03:23:38;;;;;;;12.18;2.30;;;;;;;6.06;93.82;101486.44;7396717;19;19926;-78
2024/01/23 03:26:07;;;;;;;13.13;2.67;;;;;;;6.09;93.61;101478.16;7397413;19;19914;-78
2024/01/23 03:28:35;;;;;;;11.60;2.97;;;;;;;6.09;93.57;101486.19;7397367;19;20384;-78
2024/01/23 03:31:07;;;;;;;19.85;3.08;;;;;;;6.13;93.45;101488.44;7396836;19;19994;-78
2024/01/23 03:33:36;;;;;;;16.77;3.25;;;;;;;6.15;93.36;101488.31;7398102;19;20382;-78
2024/01/23 03:36:04;;;;;;;13.05;2.30;;;;;;;6.13;93.15;101501.81;7396788;19;21279;-78
2024/01/23 03:38:33;;;;;;;14.45;2.40;;;;;;;6.16;93.07;101495.38;7392636;19;19922;-78
2024/01/23 03:41:02;;;;;;;11.30;2.15;;;;;;;6.15;93.22;101505.22;7396781;19;20285;-78
2024/01/23 03:43:30;;;;;;;17.20;2.53;;;;;;;6.16;93.17;101498.06;7395304;19;19926;-78
2024/01/23 03:45:59;;;;;;;11.40;2.13;;;;;;;6.11;92.84;101511.81;7395999;19;19926;-78
2024/01/23 03:48:31;;;;;;;15.95;2.95;;;;;;;6.07;93.23;101509.56;7393654;19;19954;-78
2024/01/23 03:51:00;;;;;;;12.48;2.80;;;;;;;6.08;93.00;101498.72;7392760;19;19954;-78
2024/01/23 03:53:30;;;;;;;11.85;2.03;;;;;;;6.10;93.01;101512.81;7388169;19;19929;-78
2024/01/23 03:56:00;;;;;;;14.10;2.60;;;;;;;6.08;92.96;101528.16;7394355;19;19918;-77
2024/01/23 03:58:30;;;;;;;7.18;1.98;;;;;;;6.10;92.77;101544.91;7392292;19;20382;-78
2024/01/23 04:01:01;;;;;;;13.40;2.83;;;;;;;6.15;92.94;101552.53;7396640;19;19922;-77
2024/01/23 04:03:33;;;;;;;21.48;3.10;;;;;;;6.15;92.87;101574.78;7394890;19;19930;-78
2024/01/23 04:06:02;;;;;;;23.30;2.45;;;;;;;6.16;93.13;101554.22;7396331;19;19923;-77
2024/01/23 04:08:31;;;;;;;14.73;2.63;;;;;;;6.15;93.22;101558.72;7396173;19;19919;-78
2024/01/23 04:11:01;;;;;;;11.27;3.90;;;;;;;6.12;93.34;101577.72;7396313;19;19918;-78
2024/01/23 04:13:30;;;;;;;11.27;2.83;;;;;;;6.15;93.13;101584.63;7385780;19;19918;-77
2024/01/23 04:15:59;;;;;;;17.67;3.35;;;;;;;6.15;93.12;101580.13;7396547;19;20875;-78
2024/01/23 04:18:29;;;;;;;8.10;1.90;;;;;;;6.17;93.24;101580.00;7392499;19;19923;-77
2024/01/23 04:21:01;;;;;;;11.32;2.97;;;;;;;6.20;93.13;101612.69;7395562;19;19923;-78
2024/01/23 04:23:30;;;;;;;16.85;2.50;;;;;;;6.23;93.15;101612.44;7391424;19;19922;-78
2024/01/23 04:26:00;;;;;;;15.35;2.72;;;;;;;6.28;92.96;101615.56;7393102;19;19933;-78
2024/01/23 04:28:30;;;;;;;17.13;2.33;;;;;;;6.29;93.42;101601.22;7394049;19;19919;-77
2024/01/23 04:30:59;;;;;;;15.60;2.65;;;;;;;6.30;92.98;101642.16;7394447;19;19926;-77
2024/01/23 04:33:29;;;;;;;12.77;2.83;;;;;;;6.33;93.17;101639.25;7394274;19;19923;-78
2024/01/23 04:36:01;;;;;;;7.35;2.38;;;;;;;6.33;93.25;101644.59;7393073;19;20501;-78
2024/01/23 04:38:30;;;;;;;;;;;;;;;6.36;92.76;101629.13;7388922;19;19922;-77
2024/01/23 04:40:59;;;;;;;20.63;2.70;;;;;;;6.41;93.18;101646.63;7391093;19;19918;-77
2024/01/23 04:43:29;;;;;;;16.30;2.70;;;;;;;6.41;93.11;101630.56;7393787;19;19914;-77
2024/01/23 04:45:59;;;;;;;18.33;3.60;;;;;;;6.44;93.37;101632.97;7391561;19;19922;-78
2024/01/23 04:48:29;;;;;;;14.45;2.83;;;;;;;6.46;93.33;101639.91;7393371;19;20501;-78
2024/01/23 04:51:01;;;;;;;9.65;2.55;;;;;;;6.47;93.55;101646.09;7394009;19;20662;-78
2024/01/23 04:53:32;;;;;;;15.00;3.08;;;;;;;6.48;93.56;101663.84;7394058;19;19943;-78
2024/01/23 04:56:01;;;;;;;14.25;1.88;;;;;;;6.50;93.36;101681.47;7386394;19;19921;-78
2024/01/23 04:58:31;;;;;;;17.25;2.67;;;;;;;6.55;93.26;101673.06;7387619;19;19929;-77
2024/01/23 05:01:01;;;;;;;10.38;1.92;;;;;;;6.56;93.46;101677.44;7392347;19;19927;-78
2024/01/23 05:03:30;;;;;;;13.02;2.85;;;;;;;6.57;93.64;101679.97;7386833;19;19938;-78
2024/01/23 05:06:03;;;;;;;15.30;3.47;;;;;;;6.59;93.43;101693.22;7395957;19;19937;-78
2024/01/23 05:08:32;;;;;;;12.55;2.75;;;;;;;6.58;93.56;101708.44;7398984;19;19938;-78
2024/01/23 05:11:02;;;;;;;16.42;2.72;;;;;;;6.62;93.38;101711.69;7399264;19;19930;-78
2024/01/23 05:13:31;;;;;;;21.08;3.10;;;;;;;6.58;94.03;101731.69;7398647;19;20240;-77
2024/01/23 05:16:20;;;;;;;17.25;2.40;;;;;;;6.58;94.20;101726.31;7397103;19;19959;-78
2024/01/23 05:18:49;;;;;;;14.73;2.90;;;;;;;6.64;93.84;101728.50;7391264;19;20313;-77
2024/01/23 05:21:21;;;;;;;16.67;2.72;;;;;;;6.66;93.72;101750.63;7397982;19;19926;-78
2024/01/23 05:23:49;;;;;;;17.48;3.22;;;;;;;6.66;93.73;101748.78;7399698;19;20284;-78
2024/01/23 05:26:18;;;;;;;18.95;2.53;;;;;;;6.66;93.93;101767.53;7399052;19;19922;-78
2024/01/23 05:28:47;;;;;;;17.13;2.22;;;;;;;6.67;93.82;101755.84;7400301;19;19918;-77
2024/01/23 05:31:15;;;;;;;18.35;4.18;;;;;;;6.71;93.93;101773.34;7395845;19;19923;-77
2024/01/23 05:33:44;;;;;;;12.25;2.85;;;;;;;6.70;94.01;101802.94;7398411;19;19929;-78
2024/01/23 05:36:13;;;;;;;16.77;3.47;;;;;;;6.68;94.12;101789.69;7397474;19;19927;-77
2024/01/23 05:38:44;;;;;;;18.30;2.78;;;;;;;6.68;94.02;101784.34;7399844;19;19919;-77
2024/01/23 05:41:13;;;;;;;10.18;1.85;;;;;;;6.72;93.94;101800.97;7397865;19;19918;-77
2024/01/23 05:43:41;;;;;;;16.83;2.80;;;;;;;6.75;93.81;101800.72;7397330;19;19926;-77
2024/01/23 05:46:10;;;;;;;14.57;3.28;;;;;;;6.75;94.10;101808.75;7398097;19;19923;-77
2024/01/23 05:48:39;;;;;;;17.67;3.47;;;;;;;6.73;94.21;101810.72;7397522;19;19922;-77
2024/01/23 05:51:07;;;;;;;11.95;3.25;;;;;;;6.72;94.00;101820.59;7398279;19;19922;-77
2024/01/23 05:53:37;;;;;;;15.65;2.85;;;;;;;6.73;93.97;101822.25;7399313;19;20337;-77
2024/01/23 05:56:09;;;;;;;16.77;3.28;;;;;;;6.76;94.12;101818.50;7398910;19;20599;-77
2024/01/23 05:58:37;;;;;;;18.02;3.03;;;;;;;6.76;94.06;101835.41;7396540;19;20277;-77
2024/01/23 06:01:06;;;;;;;21.23;2.45;;;;;;;6.75;94.27;101832.84;7387403;19;19923;-77
2024/01/23 06:03:35;;;;;;;19.95;3.42;;;;;;;6.74;94.40;101839.19;7397912;19;19931;-77
2024/01/23 06:06:03;;;;;;;21.33;3.75;;;;;;;6.73;94.49;101866.97;7395659;19;20028;-77
2024/01/23 06:08:32;;;;;;;16.45;3.50;;;;;;;6.75;94.15;101849.78;7398822;19;19919;-77
2024/01/23 06:11:01;;;;;;;15.88;3.42;;;;;;;6.78;94.29;101865.56;7397413;19;19922;-77
2024/01/23 06:13:32;;;;;;;20.25;3.13;;;;;;;6.78;94.48;101878.09;7397222;19;19922;-77
2024/01/23 06:16:01;;;;;;;17.10;2.88;;;;;;;6.75;94.67;101876.53;7389021;19;20757;-77
2024/01/23 06:18:31;;;;;;;18.67;3.35;;;;;;;6.76;94.56;101875.59;7392170;19;19915;-78
2024/01/23 06:21:00;;;;;;;22.63;5.18;;;;;;;6.75;94.62;101892.63;7397128;19;19914;-78
2024/01/23 06:23:30;;;;;;;19.98;2.92;;;;;;;6.73;94.85;101896.41;7397831;19;19946;-77
2024/01/23 06:25:59;;;;;;;23.30;3.08;;;;;;;6.73;94.99;101901.78;7396830;19;19925;-78
2024/01/23 06:28:28;;;;;;;19.45;3.15;;;;;;;6.71;95.38;101901.03;7399416;19;19918;-76
2024/01/23 06:31:00;;;;;;;18.48;3.90;;;;;;;6.70;95.45;101904.69;7397122;19;19954;-77
2024/01/23 06:33:31;;;;;;;23.52;4.32;;;;;;;6.68;95.72;101917.34;7398438;19;19926;-77
2024/01/23 06:36:00;;;;;;;18.35;3.10;;;;;;;6.66;95.92;101935.34;7390515;19;19929;-77
2024/01/23 06:38:30;;;;;;;17.23;3.63;;;;;;;6.60;96.22;101922.50;7396357;19;19923;-77
2024/01/23 06:40:59;;;;;;;14.05;2.97;;;;;;;6.53;96.45;101906.06;7395869;19;19914;-77
2024/01/23 06:43:29;;;;;;;23.23;3.10;;;;;;;6.50;96.79;101934.91;7397694;19;19919;-77
2024/01/23 06:46:02;;;;;;;12.43;2.90;;;;;;;6.43;97.14;101944.44;7395593;19;20005;-77
2024/01/23 06:48:33;;;;;;;16.13;3.15;;;;;;;6.42;97.41;101954.28;7395807;19;20268;-77
2024/01/23 06:51:02;;;;;;;22.40;3.38;;;;;;;6.34;97.83;101965.59;7397833;19;19918;-77
2024/01/23 06:53:31;;;;;;;21.40;3.33;;;;;;;6.31;97.95;101955.13;7397424;19;19927;-77
2024/01/23 06:56:01;;;;;;;18.75;3.50;;;;;;;6.25;98.12;101966.34;7397725;19;19927;-78
2024/01/23 06:58:30;;;;;;;20.20;3.08;;;;;;;6.24;98.58;101961.97;7396498;19;19918;-77
2024/01/23 07:01:02;;;;;;;23.98;4.40;;;;;;;6.18;98.91;101972.28;7396078;19;19915;-77
2024/01/23 07:03:32;;;;;;;20.45;3.30;;;;;;;6.12;99.12;101973.66;7379604;19;19918;-78
2024/01/23 07:06:01;;;;;;;17.35;2.53;;;;;;;6.13;99.16;101972.66;7393720;19;20526;-78
2024/01/23 07:08:32;;;;;;;20.77;3.45;;;;;;;6.13;99.29;101971.78;7392621;19;20362;-77
2024/01/23 07:11:01;;;;;;;23.15;4.85;;;;;;;6.08;99.62;101974.84;7380913;19;20295;-77
2024/01/23 07:13:30;;;;;;;19.73;3.08;;;;;;;6.05;99.88;101996.47;7389596;19;19926;-76
2024/01/23 07:16:02;;;;;;;25.17;3.55;;;;;;;6.03;100.00;101986.88;7394378;19;19933;-76
2024/01/23 07:18:32;;;;;;;16.30;3.22;;;;;;;6.00;100.00;101998.66;7396906;19;19922;-77
2024/01/23 07:21:01;;;;;;;16.63;3.97;;;;;;;5.97;100.00;101995.38;7384444;19;19922;-77
2024/01/23 07:23:31;;;;;;;18.23;3.65;;;;;;;5.94;100.00;102007.19;7392791;19;20236;-77
2024/01/23 07:26:00;;;;;;;17.98;3.08;;;;;;;5.95;100.00;102010.72;7393597;19;19922;-77
2024/01/23 07:28:30;;;;;;;25.63;4.47;;;;;;;5.93;100.00;102010.81;7393785;19;19921;-77
2024/01/23 07:31:02;;;;;;;23.02;3.42;;;;;;;5.93;100.00;102014.34;7391845;19;20371;-77
2024/01/23 07:33:31;;;;;;;18.38;3.58;;;;;;;5.91;100.00;102018.13;7394772;19;20426;-77
2024/01/23 07:36:00;;;;;;;21.45;3.67;;;;;;;5.89;100.00;102026.25;7394394;19;19929;-77
2024/01/23 07:38:30;;;;;;;27.52;3.58;;;;;;;5.88;100.00;102037.06;7382692;19;19937;-76
2024/01/23 07:41:00;;;;;;;23.08;3.30;;;;;;;5.85;100.00;102047.97;7390864;19;19918;-79
2024/01/23 07:43:29;;;;;;;19.45;3.47;;;;;;;5.85;100.00;102039.94;7393220;19;20358;-77
2024/01/23 07:46:01;;;;;;;17.80;3.38;;;;;;;5.83;100.00;102037.38;7391678;19;19951;-77
2024/01/23 07:48:31;;;;;;;19.50;3.80;;;;;;;5.81;100.00;102067.88;7391634;19;19926;-77
2024/01/23 07:51:01;;;;;;;19.88;4.10;;;;;;;5.79;100.00;102081.38;7393243;19;19927;-78
2024/01/23 07:53:32;;;;;;;14.77;3.50;;;;;;;5.79;100.00;102083.19;7393120;19;19914;-77
2024/01/23 07:56:03;;;;;;;14.90;2.85;;;;;;;5.79;100.00;102089.38;7386802;19;19933;-78
2024/01/23 07:58:32;;;;;;;28.92;4.13;;;;;;;5.78;100.00;102085.00;7386063;19;20249;-79
2024/01/23 08:01:04;;;;;;;24.15;4.45;;;;;;;5.78;100.00;102097.53;7395617;19;20665;-76
2024/01/23 08:03:32;;;;;;;27.33;4.55;;;;;;;5.78;100.00;102097.53;7381297;19;19986;-77
2024/01/23 08:06:01;;;;;;;21.30;3.83;;;;;;;5.80;100.00;102112.50;7390192;19;20010;-77
2024/01/23 08:08:30;;;;;;;13.60;3.35;;;;;;;5.80;100.00;102099.13;7389016;19;19922;-78
2024/01/23 08:10:59;;;;;;;21.67;4.68;;;;;;;5.81;100.00;102116.88;7388802;19;19930;-77
2024/01/23 08:13:27;;;;;;;20.17;3.63;;;;;;;5.78;100.00;102121.59;7392378;19;19927;-79
2024/01/23 08:15:56;;;;;;;20.02;3.15;;;;;;;5.78;100.00;102114.41;7394726;19;19923;-78
2024/01/23 08:18:27;;;;;;;27.23;4.07;;;;;;;5.77;100.00;102123.44;7392559;19;20348;-76
2024/01/23 08:20:56;;;;;;;26.80;4.75;;;;;;;5.77;100.00;102154.66;7389497;19;19926;-79
2024/01/23 08:23:25;;;;;;;16.05;3.80;;;;;;;5.75;100.00;102140.53;7395164;19;20357;-78
2024/01/23 08:25:54;;;;;;;25.70;3.35;;;;;;;5.72;100.00;102149.66;7387028;19;19922;-76
2024/01/23 08:28:24;;;;;;;22.50;4.30;;;;;;;5.75;100.00;102162.78;7393618;19;19941;-83
2024/01/23 08:30:54;;;;;;;20.08;4.57;;;;;;;5.80;100.00;102174.00;7394371;19;19926;-73
2024/01/23 08:33:23;;;;;;;23.08;3.15;;;;;;;5.83;100.00;102175.56;7394949;19;20351;-74
2024/01/23 08:35:55;;;;;;;18.40;2.88;;;;;;;5.81;100.00;102177.53;7393909;19;19933;-77
2024/01/23 08:38:24;;;;;;;21.17;3.25;;;;;;;5.82;100.00;102179.25;7392853;19;19930;-75
2024/01/23 08:40:54;;;;;;;23.17;5.30;;;;;;;5.83;100.00;102171.09;7397182;19;20500;-76
2024/01/23 08:43:23;;;;;;;24.15;4.07;;;;;;;5.85;100.00;102179.00;7392843;19;19922;-76
2024/01/23 08:45:53;;;;;;;18.80;3.80;;;;;;;5.88;100.00;102192.16;7391932;19;19918;-75
2024/01/23 08:48:24;;;;;;;21.17;4.50;;;;;;;5.89;100.00;102177.84;7398797;19;19910;-75
2024/01/23 08:50:57;;;;;;;20.98;3.72;;;;;;;5.93;100.00;102176.63;7398627;19;20394;-75
2024/01/23 08:53:26;;;;;;;;;;;;;;;5.90;100.00;102177.72;7400983;19;19918;-75
2024/01/23 08:55:55;;;;;;;23.75;4.18;;;;;;;5.95;100.00;102184.56;7396536;19;19919;-76
2024/01/23 08:58:25;;;;;;;20.65;3.10;;;;;;;5.98;100.00;102184.31;7399212;19;20378;-75
2024/01/23 09:00:54;;;;;;;16.98;3.95;;;;;;;6.00;100.00;102175.19;7398054;19;19950;-73
2024/01/23 09:03:24;;;;;;;27.60;5.03;;;;;;;6.00;100.00;102179.72;7397061;19;19929;-73
2024/01/23 09:05:53;;;;;;;24.65;3.60;;;;;;;6.04;100.00;102178.50;7396445;19;20521;-73
2024/01/23 09:08:25;;;;;;;27.83;3.35;;;;;;;6.05;100.00;102201.59;7397290;19;20029;-73
2024/01/23 09:10:54;;;;;;;9.90;2.75;;;;;;;6.04;100.00;102179.34;7395840;19;19934;-73
2024/01/23 09:13:24;;;;;;;24.73;3.72;;;;;;;6.08;100.00;102174.63;7397354;19;19934;-72
2024/01/23 09:15:54;;;;;;;17.90;4.05;;;;;;;6.11;100.00;102180.59;7396508;19;19926;-73
2024/01/23 09:18:23;;;;;;;30.58;4.78;;;;;;;6.09;100.00;102182.53;7393331;19;19919;-76
2024/01/23 09:20:53;;;;;;;16.63;3.58;;;;;;;6.16;100.00;102197.16;7396960;19;19918;-76
2024/01/23 09:23:25;;;;;;;21.55;4.32;;;;;;;6.18;100.00;102181.84;7396900;19;19934;-76
2024/01/23 09:25:54;;;;;;;;;;;;;;;6.17;100.00;102192.66;7394425;19;19930;-75
2024/01/23 09:28:24;;;;;;;18.70;2.72;;;;;;;6.22;100.00;102180.63;7395275;19;19919;-76
2024/01/23 09:30:53;;;;;;;23.42;4.25;;;;;;;6.27;100.00;102193.66;7396338;19;20913;-74
2024/01/23 09:33:23;;;;;;;26.50;3.80;;;;;;;6.28;100.00;102200.72;7396233;19;19922;-74
2024/01/23 09:35:52;;;;;;;19.55;2.97;;;;;;;6.29;100.00;102184.56;7391153;19;19918;-76
2024/01/23 09:38:24;;;;;;;16.77;3.30;;;;;;;6.37;100.00;102203.56;7395704;19;19925;-76
2024/01/23 09:40:54;;;;;;;19.10;5.10;;;;;;;6.42;100.00;102208.56;7396402;19;19911;-75
2024/01/23 09:43:24;;;;;;;27.73;5.00;;;;;;;6.47;99.78;102208.22;7392864;19;20387;-75
2024/01/23 09:45:56;;;;;;;22.90;3.58;;;;;;;6.46;99.91;102219.88;7396443;19;20636;-73
2024/01/23 09:48:26;;;;;;;14.02;3.33;;;;;;;6.52;99.79;102230.09;7391708;19;19922;-70
2024/01/23 09:50:56;;;;;;;22.23;3.65;;;;;;;6.57;99.33;102230.59;7389748;19;19922;-76
2024/01/23 09:53:28;;;;;;;18.83;2.90;;;;;;;6.56;99.16;102237.78;7392190;19;19930;-75
2024/01/23 09:55:58;;;;;;;21.15;3.90;;;;;;;6.65;99.03;102254.97;7397217;19;20549;-72
2024/01/23 09:58:28;;;;;;;21.90;3.80;;;;;;;6.70;98.85;102271.53;7396531;19;19938;-73
2024/01/23 10:00:59;;;;;;;17.70;2.83;;;;;;;6.72;98.51;102253.53;7397989;19;20348;-75
2024/01/23 10:03:29;;;;;;;13.30;3.15;;;;;;;6.74;98.02;102267.66;7388041;19;19930;-77
2024/01/23 10:05:58;;;;;;;19.10;3.85;;;;;;;6.80;98.24;102254.66;7386900;19;19926;-76
2024/01/23 10:08:30;;;;;;;17.70;3.75;;;;;;;6.82;98.01;102252.69;7393600;19;19930;-74
2024/01/23 10:11:01;;;;;;;25.35;4.18;;;;;;;6.85;97.48;102273.06;7393469;19;19926;-74
2024/01/23 10:13:31;;;;;;;22.55;4.18;;;;;;;6.90;97.47;102254.78;7395171;19;20361;-76
2024/01/23 10:16:01;;;;;;;27.15;4.07;;;;;;;6.93;97.23;102242.97;7395135;19;19937;-77
2024/01/23 10:18:30;;;;;;;22.90;3.13;;;;;;;6.96;96.65;102243.59;7392466;19;19926;-76
2024/01/23 10:21:00;;;;;;;20.75;3.70;;;;;;;6.97;96.52;102256.00;7394136;19;19923;-75
2024/01/23 10:23:34;;;;;;;17.90;3.33;;;;;;;7.05;96.13;102245.53;7395842;19;19921;-75
2024/01/23 10:26:04;;;;;;;20.05;3.22;;;;;;;7.08;95.90;102245.28;7397650;19;19918;-73
2024/01/23 10:28:33;;;;;;;13.27;3.45;;;;;;;7.14;95.99;102246.66;7394564;19;19919;-73
2024/01/23 10:31:03;;;;;;;17.08;3.17;;;;;;;7.20;95.83;102255.06;7388379;19;19931;-72
2024/01/23 10:33:33;;;;;;;26.23;3.58;;;;;;;7.24;95.52;102261.03;7395127;19;19918;-74
2024/01/23 10:36:05;;;;;;;24.58;4.38;;;;;;;7.24;95.26;102264.56;7396716;19;19923;-73
2024/01/23 10:38:38;;;;;;;23.58;3.58;;;;;;;7.29;95.12;102261.53;7392788;19;20256;-73
2024/01/23 10:41:08;;;;;;;22.13;3.38;;;;;;;7.34;95.32;102247.72;7397775;19;19919;-73
2024/01/23 10:43:38;;;;;;;22.63;3.85;;;;;;;7.44;94.99;102254.06;7394654;19;19930;-74
2024/01/23 10:46:07;;;;;;;27.58;4.20;;;;;;;7.45;94.53;102256.66;7396585;19;19923;-75
2024/01/23 10:48:38;;;;;;;21.25;3.22;;;;;;;7.47;94.48;102251.13;7395213;19;19914;-73
2024/01/23 10:51:16;;;;;;;14.30;2.70;;;;;;;7.53;94.14;102256.03;7396948;19;19922;-74
2024/01/23 10:53:57;;;;;;;21.00;4.00;;;;;;;7.61;93.34;102237.47;7395415;19;19933;-72
2024/01/23 10:56:27;;;;;;;18.75;2.88;;;;;;;7.68;92.70;102261.00;7396309;19;19926;-74
2024/01/23 10:59:02;;;;;;;21.92;3.45;;;;;;;7.77;93.14;102254.03;7395203;19;19918;-73
2024/01/23 11:01:36;;;;;;;18.67;4.35;;;;;;;7.80;92.42;102266.34;7394778;19;19929;-75
2024/01/23 11:04:06;;;;;;;22.65;4.25;;;;;;;7.89;92.51;102258.41;7394474;19;19919;-75
2024/01/23 11:06:41;;;;;;;21.45;3.25;;;;;;;7.99;91.49;102267.38;7395638;19;20263;-76
2024/01/23 11:09:21;;;;;;;20.40;3.33;;;;;;;8.08;91.06;102266.63;7391608;19;19918;-77
2024/01/23 11:12:03;;;;;;;21.45;3.30;;;;;;;8.14;89.94;102258.09;7372334;19;19918;-77
2024/01/23 11:14:43;;;;;;;14.80;3.28;;;;;;;8.20;89.99;102245.97;7386180;19;19929;-76
2024/01/23 11:17:13;;;;;;;16.95;3.47;;;;;;;8.23;89.82;102277.94;7389406;19;19938;-77
2024/01/23 11:19:43;;;;;;;16.92;3.45;;;;;;;8.24;90.24;102260.81;7391451;19;19938;-77
2024/01/23 11:22:12;;;;;;;20.80;4.00;;;;;;;8.23;90.11;102253.78;7390781;19;19914;-77
2024/01/23 11:24:48;;;;;;;20.42;3.47;;;;;;;8.26;89.43;102256.19;7385585;19;19918;-77
2024/01/23 11:27:21;;;;;;;27.65;3.33;;;;;;;8.27;89.40;102275.84;7389116;19;19938;-77
2024/01/23 11:29:52;;;;;;;29.70;5.35;;;;;;;8.32;89.72;102271.00;7390893;19;19922;-78
2024/01/23 11:32:25;;;;;;;16.50;3.15;;;;;;;8.34;89.36;102263.63;7387679;19;19930;-77
2024/01/23 11:35:07;;;;;;;21.33;3.40;;;;;;;8.31;87.48;102262.06;7387038;19;19930;-78
2024/01/23 11:37:58;;;;;;;17.80;3.05;;;;;;;8.20;88.05;102286.22;7384827;19;19918;-77
2024/01/23 11:40:42;;;;;;;21.90;3.30;;;;;;;8.06;88.37;102260.56;7390280;19;19910;-74